Nearby METAR Reports

 

YSRI - Richmond (aus-Af, Australia
Distance from station: WSW 35km
Updated: 26/05/2022 05:30
Mostly cloudy
Mostly cloudy
 Wind from calm
Wind: Calm
Temperature: 10°C
Dew Point: 10°C
Humidity: 100%
Barometer: 1020 hPa
Clouds: Mostly cloudy
Visibility: 0 km
Cloud details: Mostly cloudy 30 m
2022/05/25 19:30 YSRI 251930Z AUTO 00000KT 0300 // BKN001 10/10 Q1020
YSSY - Sydney Intl Airp, Australia
Distance from station: S 47km
Updated: 26/05/2022 05:30
Clear
Clear
 Wind from NNW
Wind: NNW 9 km/h
Temperature: 13°C
Dew Point: 11°C
Humidity: 88%
Barometer: 1020 hPa
Summary: Clear
Visibility: greater than 10 km
2022/05/25 19:30 YSSY 251930Z 33005KT CAVOK 13/11 Q1020
 
YWLM - Williamtown Arp, Australia
Distance from station: NE 104km
Updated: 26/05/2022 05:30
Clear
Clear
 Wind from calm
Wind: Calm
Temperature: 11°C
Dew Point: 11°C
Humidity: 100%
Barometer: 1019 hPa
Clouds: Clear
Visibility: 10 km
2022/05/25 19:30 YWLM 251930Z AUTO 00000KT 9999 // NCD 11/11 Q1019 RF00.0/000.0
YSNW - Nowra (aus-Navy), Australia
Distance from station: SSW 168km
Updated: 25/05/2022 14:00
NOT Current
Light rain, Showers, Mostly cloudy
Light rain, Showers, Mostly cloudy
 Wind from SE
Wind: SE 17 km/h
Temperature: 16°C
Dew Point: 14°C
Humidity: 88%
Barometer: 1022 hPa
Summary: Light rain, Showers
Clouds: Mostly cloudy
Visibility: 10 km
Cloud details: Mostly cloudy 610 m
Mostly cloudy 1036 m
2022/05/25 04:00 YSNW 250400Z 14009KT 9999 4000SW -SHRA BKN020 BKN034 16/14 Q1022
 
YMDG - Mudgee Arpt, Australia
Distance from station: NW 177km
Updated: 26/05/2022 05:30
Overcast
Overcast
 Wind from SSE
Wind: SSE 6 km/h
Temperature: 10°C
Dew Point: 10°C
Humidity: 100%
Barometer: 1020 hPa
Clouds: Overcast
Visibility: 10 km
Cloud details: Overcast 488 m
2022/05/25 19:30 YMDG 251930Z AUTO 16003KT 9999 // OVC016 10/10 Q1020
YTRE - Taree Airport, Australia
Distance from station: NE 224km
Updated: 26/05/2022 05:01
Clear
Clear
 Wind from NNW
Wind: NNW 6 km/h
Temperature: 12°C
Dew Point: 12°C
Humidity: 100%
Barometer: 1019 hPa
Clouds: Clear
Visibility: 10 km
2022/05/25 19:01 YTRE 251901Z AUTO 33003KT 9999 // NCD 12/12 Q1019
 
YSCB - Canberra (civ/Mi, Australia
Distance from station: SW 265km
Updated: 26/05/2022 05:30
Partly cloudy
Partly cloudy
 Wind from ESE
Wind: ESE 9 km/h
Temperature: 5°C
Wind Chill: 3°C
Dew Point: 5°C
Humidity: 100%
Barometer: 1020 hPa
Clouds: Partly cloudy
Visibility: 10 km
Cloud details: Partly cloudy 91 m
Partly cloudy 2377 m
2022/05/25 19:30 YSCB 251930Z AUTO 11005KT 9999 // SCT003 SCT078 05/05 Q1020
YSTW - Tamworth Airport, Australia
Distance from station: N 275km
Updated: 26/05/2022 05:30
Overcast
Overcast
 Wind from SE
Wind: SE 7 km/h
Temperature: 11°C
Dew Point: 10°C
Humidity: 94%
Barometer: 1019 hPa
Clouds: Overcast
Visibility: 10 km
Cloud details: Partly cloudy 3200 m
Overcast 3658 m
2022/05/25 19:30 YSTW 251930Z AUTO 13004KT 9999 // SCT105 OVC120 11/10 Q1019
 
YSDU - Dubbo, Australia
Distance from station: WNW 280km
Updated: 26/05/2022 05:30
Overcast
Overcast
 Wind from E
Wind: E 17 km/h
Temperature: 13°C
Dew Point: 11°C
Humidity: 88%
Barometer: 1019 hPa
Clouds: Overcast
Visibility: 10 km
Cloud details: Partly cloudy 2103 m
Overcast 2743 m
2022/05/25 19:30 YSDU 251930Z AUTO 10009KT 9999 // SCT069 OVC090 13/11 Q1019
YPMQ - Port Macquarie, Australia
Distance from station: NE 284km
Updated: 24/05/2022 19:26
NOT Current
Mostly cloudy
Mostly cloudy
 Wind from NNW
Wind: NNW 4 km/h
Temperature: 15°C
Dew Point: 15°C
Humidity: 100%
Barometer: 1025 hPa
Clouds: Mostly cloudy
Visibility: 10 km
Cloud details: Partly cloudy 945 m
Partly cloudy 1341 m
Mostly cloudy 1737 m
2022/05/24 09:26 YPMQ 240926Z AUTO 33002KT 9999 // SCT031 SCT044 BKN057 15/15 Q1025
 
YCBB - Coonabarabran, Australia
Distance from station: NW 300km
Updated: 25/05/2022 16:06
NOT Current
Partly cloudy
Partly cloudy
 Wind from SSW
Wind: SSW 9 km/h
Temperature: 13°C
Dew Point: 12°C
Humidity: 94%
Barometer: 1020 hPa
Clouds: Partly cloudy
Visibility: 10 km
Cloud details: Partly cloudy 2743 m
2022/05/25 06:06 YCBB 250606Z AUTO 21005KT 9999 // SCT090 13/12 Q1020